sensor_id;sensor_type;location;lat;lon;timestamp;pressure;altitude;pressure_sealevel;temperature;humidity
70411;BME280;57832;46.038;11.398;2023-01-01T00:01:17;98385.28;;;2.13;100.00
70411;BME280;57832;46.038;11.398;2023-01-01T00:03:42;98392.25;;;2.12;100.00
70411;BME280;57832;46.038;11.398;2023-01-01T00:06:10;98399.53;;;2.17;100.00
70411;BME280;57832;46.038;11.398;2023-01-01T00:08:37;98392.03;;;2.32;100.00
70411;BME280;57832;46.038;11.398;2023-01-01T00:11:05;98387.72;;;2.41;100.00
70411;BME280;57832;46.038;11.398;2023-01-01T00:13:31;98389.47;;;2.32;100.00
70411;BME280;57832;46.038;11.398;2023-01-01T00:16:06;98388.03;;;2.38;100.00
70411;BME280;57832;46.038;11.398;2023-01-01T00:18:32;98391.31;;;2.48;100.00
70411;BME280;57832;46.038;11.398;2023-01-01T00:21:06;98387.06;;;2.39;100.00
70411;BME280;57832;46.038;11.398;2023-01-01T00:23:33;98387.91;;;2.21;100.00
70411;BME280;57832;46.038;11.398;2023-01-01T00:25:59;98389.75;;;2.29;100.00
70411;BME280;57832;46.038;11.398;2023-01-01T00:28:25;98387.44;;;2.17;100.00
70411;BME280;57832;46.038;11.398;2023-01-01T00:30:50;98381.06;;;2.38;100.00
70411;BME280;57832;46.038;11.398;2023-01-01T00:33:16;98375.97;;;2.20;100.00
70411;BME280;57832;46.038;11.398;2023-01-01T00:35:42;98373.00;;;2.15;100.00
70411;BME280;57832;46.038;11.398;2023-01-01T00:38:07;98364.28;;;2.16;100.00
70411;BME280;57832;46.038;11.398;2023-01-01T00:40:33;98364.00;;;2.01;100.00
70411;BME280;57832;46.038;11.398;2023-01-01T00:42:58;98365.38;;;1.87;100.00
70411;BME280;57832;46.038;11.398;2023-01-01T00:45:24;98363.75;;;1.86;100.00
70411;BME280;57832;46.038;11.398;2023-01-01T00:47:51;98373.66;;;1.91;100.00
70411;BME280;57832;46.038;11.398;2023-01-01T00:50:18;98367.41;;;1.75;100.00
70411;BME280;57832;46.038;11.398;2023-01-01T00:52:44;98367.25;;;1.77;100.00
70411;BME280;57832;46.038;11.398;2023-01-01T00:55:10;98365.41;;;1.69;100.00
70411;BME280;57832;46.038;11.398;2023-01-01T00:57:35;98363.38;;;1.81;100.00
70411;BME280;57832;46.038;11.398;2023-01-01T01:00:01;98361.34;;;1.66;100.00
70411;BME280;57832;46.038;11.398;2023-01-01T01:02:26;98365.63;;;1.76;100.00
70411;BME280;57832;46.038;11.398;2023-01-01T01:04:52;98362.53;;;1.72;100.00
70411;BME280;57832;46.038;11.398;2023-01-01T01:07:17;98359.66;;;1.57;100.00
70411;BME280;57832;46.038;11.398;2023-01-01T01:09:43;98366.81;;;1.63;100.00
70411;BME280;57832;46.038;11.398;2023-01-01T01:12:08;98372.78;;;1.82;100.00
70411;BME280;57832;46.038;11.398;2023-01-01T01:14:34;98370.34;;;1.80;100.00
70411;BME280;57832;46.038;11.398;2023-01-01T01:16:59;98371.88;;;1.91;100.00
70411;BME280;57832;46.038;11.398;2023-01-01T01:19:25;98369.03;;;2.03;100.00
70411;BME280;57832;46.038;11.398;2023-01-01T01:21:51;98373.16;;;1.87;100.00
70411;BME280;57832;46.038;11.398;2023-01-01T01:24:17;98364.78;;;1.93;100.00
70411;BME280;57832;46.038;11.398;2023-01-01T01:26:42;98373.72;;;1.99;100.00
70411;BME280;57832;46.038;11.398;2023-01-01T01:29:08;98368.34;;;1.92;100.00
70411;BME280;57832;46.038;11.398;2023-01-01T01:31:34;98373.75;;;1.81;100.00
70411;BME280;57832;46.038;11.398;2023-01-01T01:34:00;98373.91;;;1.79;100.00
70411;BME280;57832;46.038;11.398;2023-01-01T01:36:27;98376.16;;;1.56;100.00
70411;BME280;57832;46.038;11.398;2023-01-01T01:38:53;98372.56;;;1.57;100.00
70411;BME280;57832;46.038;11.398;2023-01-01T01:41:21;98368.34;;;1.74;100.00
70411;BME280;57832;46.038;11.398;2023-01-01T01:46:34;98356.91;;;1.77;100.00
70411;BME280;57832;46.038;11.398;2023-01-01T01:49:20;98355.56;;;1.91;100.00
70411;BME280;57832;46.038;11.398;2023-01-01T01:51:47;98348.94;;;1.96;100.00
70411;BME280;57832;46.038;11.398;2023-01-01T01:54:18;98344.09;;;1.93;100.00
70411;BME280;57832;46.038;11.398;2023-01-01T01:56:51;98355.03;;;1.87;100.00
70411;BME280;57832;46.038;11.398;2023-01-01T01:59:20;98351.19;;;1.73;100.00
70411;BME280;57832;46.038;11.398;2023-01-01T02:01:48;98357.31;;;1.90;100.00
70411;BME280;57832;46.038;11.398;2023-01-01T02:04:14;98361.53;;;1.91;100.00
70411;BME280;57832;46.038;11.398;2023-01-01T02:06:41;98366.19;;;1.88;100.00
70411;BME280;57832;46.038;11.398;2023-01-01T02:09:08;98364.28;;;1.90;100.00
70411;BME280;57832;46.038;11.398;2023-01-01T02:11:34;98362.44;;;2.08;100.00
70411;BME280;57832;46.038;11.398;2023-01-01T02:14:01;98362.94;;;1.86;100.00
70411;BME280;57832;46.038;11.398;2023-01-01T02:16:46;98351.97;;;1.65;100.00
70411;BME280;57832;46.038;11.398;2023-01-01T02:22:17;98347.47;;;1.94;100.00
70411;BME280;57832;46.038;11.398;2023-01-01T02:30:17;98341.13;;;2.14;100.00
70411;BME280;57832;46.038;11.398;2023-01-01T02:32:51;98341.81;;;2.25;100.00
70411;BME280;57832;46.038;11.398;2023-01-01T02:35:31;98333.81;;;2.36;100.00
70411;BME280;57832;46.038;11.398;2023-01-01T02:38:17;98339.34;;;2.15;100.00
70411;BME280;57832;46.038;11.398;2023-01-01T02:40:49;98334.41;;;2.30;100.00
70411;BME280;57832;46.038;11.398;2023-01-01T02:43:16;98332.94;;;2.27;100.00
70411;BME280;57832;46.038;11.398;2023-01-01T02:45:41;98334.41;;;2.30;100.00
70411;BME280;57832;46.038;11.398;2023-01-01T02:48:39;98328.63;;;2.36;100.00
70411;BME280;57832;46.038;11.398;2023-01-01T02:54:36;98335.09;;;2.32;100.00
70411;BME280;57832;46.038;11.398;2023-01-01T03:03:12;98329.16;;;2.13;100.00
70411;BME280;57832;46.038;11.398;2023-01-01T03:06:04;98331.22;;;2.10;100.00
70411;BME280;57832;46.038;11.398;2023-01-01T03:14:11;98330.91;;;1.87;100.00
70411;BME280;57832;46.038;11.398;2023-01-01T03:16:49;98323.97;;;1.87;100.00
70411;BME280;57832;46.038;11.398;2023-01-01T03:19:25;98329.69;;;1.73;100.00
70411;BME280;57832;46.038;11.398;2023-01-01T03:21:57;98329.66;;;1.64;100.00
70411;BME280;57832;46.038;11.398;2023-01-01T03:24:32;98329.06;;;1.71;100.00
70411;BME280;57832;46.038;11.398;2023-01-01T03:27:05;98326.72;;;1.86;100.00
70411;BME280;57832;46.038;11.398;2023-01-01T03:29:34;98310.22;;;1.87;100.00
70411;BME280;57832;46.038;11.398;2023-01-01T03:32:03;98314.97;;;1.73;100.00
70411;BME280;57832;46.038;11.398;2023-01-01T03:34:35;98325.78;;;1.69;100.00
70411;BME280;57832;46.038;11.398;2023-01-01T03:37:06;98317.56;;;1.73;100.00
70411;BME280;57832;46.038;11.398;2023-01-01T03:39:44;98323.53;;;1.47;100.00
70411;BME280;57832;46.038;11.398;2023-01-01T03:42:37;98320.38;;;1.36;100.00
70411;BME280;57832;46.038;11.398;2023-01-01T03:45:07;98311.28;;;1.31;100.00
70411;BME280;57832;46.038;11.398;2023-01-01T03:47:34;98305.09;;;1.24;100.00
70411;BME280;57832;46.038;11.398;2023-01-01T03:50:01;98309.22;;;1.17;100.00
70411;BME280;57832;46.038;11.398;2023-01-01T03:52:48;98310.97;;;1.34;100.00
70411;BME280;57832;46.038;11.398;2023-01-01T03:58:44;98306.28;;;1.30;100.00
70411;BME280;57832;46.038;11.398;2023-01-01T04:01:26;98310.63;;;1.11;100.00
70411;BME280;57832;46.038;11.398;2023-01-01T04:03:55;98305.31;;;1.13;100.00
70411;BME280;57832;46.038;11.398;2023-01-01T04:06:21;98294.03;;;1.14;100.00
70411;BME280;57832;46.038;11.398;2023-01-01T04:08:49;98289.66;;;1.14;100.00
70411;BME280;57832;46.038;11.398;2023-01-01T04:11:20;98290.75;;;1.12;100.00
70411;BME280;57832;46.038;11.398;2023-01-01T04:14:05;98287.50;;;1.28;100.00
70411;BME280;57832;46.038;11.398;2023-01-01T04:16:31;98293.06;;;1.15;100.00
70411;BME280;57832;46.038;11.398;2023-01-01T04:18:56;98288.25;;;1.20;100.00
70411;BME280;57832;46.038;11.398;2023-01-01T04:21:22;98293.13;;;1.23;100.00
70411;BME280;57832;46.038;11.398;2023-01-01T04:23:47;98287.91;;;1.15;100.00
70411;BME280;57832;46.038;11.398;2023-01-01T04:26:14;98288.25;;;1.02;100.00
70411;BME280;57832;46.038;11.398;2023-01-01T04:28:40;98285.91;;;1.27;100.00
70411;BME280;57832;46.038;11.398;2023-01-01T04:31:07;98283.44;;;1.25;100.00
70411;BME280;57832;46.038;11.398;2023-01-01T04:33:32;98293.19;;;1.31;100.00
70411;BME280;57832;46.038;11.398;2023-01-01T04:36:06;98284.63;;;1.13;100.00
70411;BME280;57832;46.038;11.398;2023-01-01T04:38:33;98287.75;;;1.16;100.00
70411;BME280;57832;46.038;11.398;2023-01-01T04:41:00;98287.16;;;1.23;100.00
70411;BME280;57832;46.038;11.398;2023-01-01T04:43:25;98294.59;;;1.26;100.00
70411;BME280;57832;46.038;11.398;2023-01-01T04:45:58;98297.03;;;1.27;100.00
70411;BME280;57832;46.038;11.398;2023-01-01T04:48:24;98298.16;;;1.25;100.00
70411;BME280;57832;46.038;11.398;2023-01-01T04:51:01;98294.25;;;1.21;100.00
70411;BME280;57832;46.038;11.398;2023-01-01T04:53:33;98295.13;;;1.29;100.00
70411;BME280;57832;46.038;11.398;2023-01-01T04:56:06;98294.91;;;1.23;100.00
70411;BME280;57832;46.038;11.398;2023-01-01T04:58:33;98294.09;;;1.22;100.00
70411;BME280;57832;46.038;11.398;2023-01-01T05:00:59;98300.16;;;1.31;100.00
70411;BME280;57832;46.038;11.398;2023-01-01T05:03:24;98296.34;;;1.25;100.00
70411;BME280;57832;46.038;11.398;2023-01-01T05:08:36;98299.13;;;1.06;100.00
70411;BME280;57832;46.038;11.398;2023-01-01T05:11:13;98298.22;;;0.97;100.00
70411;BME280;57832;46.038;11.398;2023-01-01T05:13:42;98295.88;;;0.86;100.00
70411;BME280;57832;46.038;11.398;2023-01-01T05:16:10;98298.66;;;0.92;100.00
70411;BME280;57832;46.038;11.398;2023-01-01T05:18:37;98299.75;;;0.72;100.00
70411;BME280;57832;46.038;11.398;2023-01-01T05:21:04;98291.72;;;0.75;100.00
70411;BME280;57832;46.038;11.398;2023-01-01T05:23:30;98299.50;;;0.65;100.00
70411;BME280;57832;46.038;11.398;2023-01-01T05:25:57;98298.78;;;0.73;100.00
70411;BME280;57832;46.038;11.398;2023-01-01T05:28:22;98295.97;;;0.66;100.00
70411;BME280;57832;46.038;11.398;2023-01-01T05:30:50;98291.44;;;0.50;100.00
70411;BME280;57832;46.038;11.398;2023-01-01T05:33:15;98299.56;;;0.55;100.00
70411;BME280;57832;46.038;11.398;2023-01-01T05:35:41;98305.59;;;0.46;100.00
70411;BME280;57832;46.038;11.398;2023-01-01T05:38:06;98303.81;;;0.46;100.00
70411;BME280;57832;46.038;11.398;2023-01-01T05:40:32;98307.31;;;0.55;100.00
70411;BME280;57832;46.038;11.398;2023-01-01T05:42:57;98306.41;;;0.46;100.00
70411;BME280;57832;46.038;11.398;2023-01-01T05:45:23;98312.66;;;0.44;100.00
70411;BME280;57832;46.038;11.398;2023-01-01T05:47:48;98309.19;;;0.35;100.00
70411;BME280;57832;46.038;11.398;2023-01-01T05:50:14;98301.72;;;0.32;100.00
70411;BME280;57832;46.038;11.398;2023-01-01T05:52:40;98307.00;;;0.40;100.00
70411;BME280;57832;46.038;11.398;2023-01-01T05:55:06;98312.78;;;0.52;100.00
70411;BME280;57832;46.038;11.398;2023-01-01T05:57:31;98307.94;;;0.39;100.00
70411;BME280;57832;46.038;11.398;2023-01-01T05:59:57;98302.63;;;0.41;100.00
70411;BME280;57832;46.038;11.398;2023-01-01T06:02:22;98304.97;;;0.34;100.00
70411;BME280;57832;46.038;11.398;2023-01-01T06:04:48;98307.06;;;0.21;100.00
70411;BME280;57832;46.038;11.398;2023-01-01T06:07:13;98307.16;;;0.29;100.00
70411;BME280;57832;46.038;11.398;2023-01-01T06:09:39;98308.41;;;0.25;100.00
70411;BME280;57832;46.038;11.398;2023-01-01T06:12:05;98315.06;;;0.27;100.00
70411;BME280;57832;46.038;11.398;2023-01-01T06:14:31;98314.31;;;0.07;100.00
70411;BME280;57832;46.038;11.398;2023-01-01T06:16:56;98312.59;;;-0.02;100.00
70411;BME280;57832;46.038;11.398;2023-01-01T06:19:22;98320.88;;;-0.08;100.00
70411;BME280;57832;46.038;11.398;2023-01-01T06:21:47;98316.94;;;-0.12;100.00
70411;BME280;57832;46.038;11.398;2023-01-01T06:24:13;98324.28;;;-0.18;100.00
70411;BME280;57832;46.038;11.398;2023-01-01T06:26:38;98325.88;;;-0.07;100.00
70411;BME280;57832;46.038;11.398;2023-01-01T06:29:04;98317.38;;;-0.17;100.00
70411;BME280;57832;46.038;11.398;2023-01-01T06:31:30;98313.97;;;-0.18;100.00
70411;BME280;57832;46.038;11.398;2023-01-01T06:33:56;98312.22;;;-0.17;100.00
70411;BME280;57832;46.038;11.398;2023-01-01T06:36:23;98318.31;;;-0.18;100.00
70411;BME280;57832;46.038;11.398;2023-01-01T06:38:50;98320.88;;;0.02;100.00
70411;BME280;57832;46.038;11.398;2023-01-01T06:41:23;98326.53;;;0.15;100.00
70411;BME280;57832;46.038;11.398;2023-01-01T06:43:49;98328.47;;;0.03;100.00
70411;BME280;57832;46.038;11.398;2023-01-01T06:46:29;98321.81;;;0.01;100.00
70411;BME280;57832;46.038;11.398;2023-01-01T06:48:57;98322.47;;;0.03;100.00
70411;BME280;57832;46.038;11.398;2023-01-01T06:51:29;98340.47;;;-0.25;100.00
70411;BME280;57832;46.038;11.398;2023-01-01T06:53:57;98334.50;;;-0.36;100.00
70411;BME280;57832;46.038;11.398;2023-01-01T06:56:23;98340.72;;;-0.28;100.00
70411;BME280;57832;46.038;11.398;2023-01-01T06:58:49;98350.25;;;-0.39;100.00
70411;BME280;57832;46.038;11.398;2023-01-01T07:01:17;98344.16;;;-0.57;100.00
70411;BME280;57832;46.038;11.398;2023-01-01T07:03:48;98350.78;;;-0.35;100.00
70411;BME280;57832;46.038;11.398;2023-01-01T07:06:14;98350.94;;;-0.37;100.00
70411;BME280;57832;46.038;11.398;2023-01-01T07:08:39;98356.63;;;-0.43;100.00
70411;BME280;57832;46.038;11.398;2023-01-01T07:11:05;98356.75;;;-0.44;100.00
70411;BME280;57832;46.038;11.398;2023-01-01T07:13:31;98353.50;;;-0.27;100.00
70411;BME280;57832;46.038;11.398;2023-01-01T07:15:56;98356.47;;;-0.22;100.00
70411;BME280;57832;46.038;11.398;2023-01-01T07:18:23;98352.47;;;0.13;100.00
70411;BME280;57832;46.038;11.398;2023-01-01T07:20:59;98355.16;;;0.12;100.00
70411;BME280;57832;46.038;11.398;2023-01-01T07:23:27;98348.94;;;0.05;100.00
70411;BME280;57832;46.038;11.398;2023-01-01T07:25:53;98355.22;;;0.40;100.00
70411;BME280;57832;46.038;11.398;2023-01-01T07:28:19;98360.38;;;0.40;100.00
70411;BME280;57832;46.038;11.398;2023-01-01T07:30:45;98357.41;;;0.35;100.00
70411;BME280;57832;46.038;11.398;2023-01-01T07:33:12;98356.00;;;0.50;100.00
70411;BME280;57832;46.038;11.398;2023-01-01T07:35:39;98358.09;;;0.37;100.00
70411;BME280;57832;46.038;11.398;2023-01-01T07:38:05;98357.56;;;0.61;100.00
70411;BME280;57832;46.038;11.398;2023-01-01T07:40:30;98356.16;;;0.94;100.00
70411;BME280;57832;46.038;11.398;2023-01-01T07:42:56;98354.34;;;1.05;100.00
70411;BME280;57832;46.038;11.398;2023-01-01T07:45:23;98353.00;;;1.00;100.00
70411;BME280;57832;46.038;11.398;2023-01-01T07:47:56;98350.00;;;1.23;100.00
70411;BME280;57832;46.038;11.398;2023-01-01T07:50:24;98346.84;;;1.29;100.00
70411;BME280;57832;46.038;11.398;2023-01-01T07:52:50;98348.97;;;1.34;100.00
70411;BME280;57832;46.038;11.398;2023-01-01T07:55:17;98353.03;;;1.55;100.00
70411;BME280;57832;46.038;11.398;2023-01-01T07:57:42;98352.13;;;1.46;100.00
70411;BME280;57832;46.038;11.398;2023-01-01T08:00:11;98356.75;;;1.78;100.00
70411;BME280;57832;46.038;11.398;2023-01-01T08:02:37;98347.91;;;1.89;100.00
70411;BME280;57832;46.038;11.398;2023-01-01T08:05:04;98345.59;;;2.04;100.00
70411;BME280;57832;46.038;11.398;2023-01-01T08:07:29;98357.25;;;1.82;100.00
70411;BME280;57832;46.038;11.398;2023-01-01T08:09:55;98353.25;;;1.88;100.00
70411;BME280;57832;46.038;11.398;2023-01-01T08:12:20;98352.09;;;2.08;100.00
70411;BME280;57832;46.038;11.398;2023-01-01T08:14:46;98351.38;;;2.24;100.00
70411;BME280;57832;46.038;11.398;2023-01-01T08:17:12;98359.31;;;2.23;100.00
70411;BME280;57832;46.038;11.398;2023-01-01T08:19:37;98351.72;;;1.77;100.00
70411;BME280;57832;46.038;11.398;2023-01-01T08:22:03;98356.88;;;1.32;100.00
70411;BME280;57832;46.038;11.398;2023-01-01T08:24:28;98358.47;;;1.70;100.00
70411;BME280;57832;46.038;11.398;2023-01-01T08:26:54;98349.75;;;1.71;100.00
70411;BME280;57832;46.038;11.398;2023-01-01T08:29:19;98352.41;;;1.79;100.00
70411;BME280;57832;46.038;11.398;2023-01-01T08:31:45;98347.63;;;1.92;100.00
70411;BME280;57832;46.038;11.398;2023-01-01T08:34:11;98351.50;;;1.88;100.00
70411;BME280;57832;46.038;11.398;2023-01-01T08:36:37;98346.72;;;2.02;100.00
70411;BME280;57832;46.038;11.398;2023-01-01T08:39:06;98353.50;;;2.03;100.00
70411;BME280;57832;46.038;11.398;2023-01-01T08:41:32;98356.56;;;2.24;100.00
70411;BME280;57832;46.038;11.398;2023-01-01T08:43:57;98353.22;;;2.32;100.00
70411;BME280;57832;46.038;11.398;2023-01-01T08:46:23;98348.41;;;2.45;100.00
70411;BME280;57832;46.038;11.398;2023-01-01T08:48:48;98356.97;;;2.46;100.00
70411;BME280;57832;46.038;11.398;2023-01-01T08:51:14;98351.38;;;2.59;100.00
70411;BME280;57832;46.038;11.398;2023-01-01T08:53:40;98349.97;;;2.81;100.00
70411;BME280;57832;46.038;11.398;2023-01-01T08:56:08;98337.03;;;2.81;100.00
70411;BME280;57832;46.038;11.398;2023-01-01T08:58:35;98340.44;;;2.81;100.00
70411;BME280;57832;46.038;11.398;2023-01-01T09:01:01;98343.56;;;3.01;100.00
70411;BME280;57832;46.038;11.398;2023-01-01T09:03:27;98335.81;;;3.10;100.00
70411;BME280;57832;46.038;11.398;2023-01-01T09:05:53;98340.66;;;3.13;100.00
70411;BME280;57832;46.038;11.398;2023-01-01T09:08:19;98349.56;;;3.18;100.00
70411;BME280;57832;46.038;11.398;2023-01-01T09:10:46;98346.50;;;3.23;100.00
70411;BME280;57832;46.038;11.398;2023-01-01T09:13:13;98344.09;;;3.46;100.00
70411;BME280;57832;46.038;11.398;2023-01-01T09:15:39;98348.16;;;3.49;100.00
70411;BME280;57832;46.038;11.398;2023-01-01T09:18:07;98339.09;;;3.61;100.00
70411;BME280;57832;46.038;11.398;2023-01-01T09:20:32;98351.41;;;3.59;100.00
70411;BME280;57832;46.038;11.398;2023-01-01T09:22:58;98344.56;;;3.66;100.00
70411;BME280;57832;46.038;11.398;2023-01-01T09:25:23;98350.41;;;3.44;100.00
70411;BME280;57832;46.038;11.398;2023-01-01T09:28:02;98353.03;;;3.60;100.00
70411;BME280;57832;46.038;11.398;2023-01-01T09:30:31;98351.38;;;4.00;100.00
70411;BME280;57832;46.038;11.398;2023-01-01T09:32:57;98334.34;;;3.98;100.00
70411;BME280;57832;46.038;11.398;2023-01-01T09:35:22;98327.72;;;4.43;100.00
70411;BME280;57832;46.038;11.398;2023-01-01T09:37:48;98325.78;;;4.37;100.00
70411;BME280;57832;46.038;11.398;2023-01-01T09:40:58;98325.50;;;4.32;100.00
70411;BME280;57832;46.038;11.398;2023-01-01T09:43:51;98329.78;;;3.92;100.00
70411;BME280;57832;46.038;11.398;2023-01-01T09:46:22;98331.09;;;3.88;100.00
70411;BME280;57832;46.038;11.398;2023-01-01T09:48:58;98328.47;;;4.12;100.00
70411;BME280;57832;46.038;11.398;2023-01-01T09:51:29;98328.19;;;4.47;100.00
70411;BME280;57832;46.038;11.398;2023-01-01T09:54:09;98338.06;;;4.91;100.00
70411;BME280;57832;46.038;11.398;2023-01-01T09:56:38;98322.31;;;5.16;100.00
70411;BME280;57832;46.038;11.398;2023-01-01T09:59:07;98329.34;;;5.07;100.00
70411;BME280;57832;46.038;11.398;2023-01-01T10:01:48;98324.97;;;5.31;100.00
70411;BME280;57832;46.038;11.398;2023-01-01T10:09:53;98302.94;;;5.42;100.00
70411;BME280;57832;46.038;11.398;2023-01-01T10:12:47;98305.00;;;5.46;100.00
70411;BME280;57832;46.038;11.398;2023-01-01T10:15:24;98303.44;;;5.60;100.00
70411;BME280;57832;46.038;11.398;2023-01-01T10:17:56;98305.56;;;5.57;100.00
70411;BME280;57832;46.038;11.398;2023-01-01T10:20:38;98307.69;;;5.53;100.00
70411;BME280;57832;46.038;11.398;2023-01-01T10:25:40;98292.66;;;5.63;100.00
70411;BME280;57832;46.038;11.398;2023-01-01T10:30:41;98285.03;;;5.77;100.00
70411;BME280;57832;46.038;11.398;2023-01-01T10:33:12;98271.44;;;5.51;100.00
70411;BME280;57832;46.038;11.398;2023-01-01T10:35:46;98267.19;;;5.74;100.00
70411;BME280;57832;46.038;11.398;2023-01-01T10:38:24;98275.28;;;5.94;100.00
70411;BME280;57832;46.038;11.398;2023-01-01T10:41:06;98265.09;;;5.69;100.00
70411;BME280;57832;46.038;11.398;2023-01-01T10:43:33;98258.03;;;5.93;100.00
70411;BME280;57832;46.038;11.398;2023-01-01T10:46:00;98252.00;;;6.37;100.00
70411;BME280;57832;46.038;11.398;2023-01-01T10:48:28;98241.00;;;6.20;100.00
70411;BME280;57832;46.038;11.398;2023-01-01T10:58:54;98230.50;;;6.50;100.00
70411;BME280;57832;46.038;11.398;2023-01-01T11:01:25;98229.28;;;6.67;100.00
70411;BME280;57832;46.038;11.398;2023-01-01T11:06:32;98223.91;;;6.54;100.00
70411;BME280;57832;46.038;11.398;2023-01-01T11:09:00;98222.63;;;6.65;100.00
70411;BME280;57832;46.038;11.398;2023-01-01T11:11:46;98221.72;;;6.73;100.00
70411;BME280;57832;46.038;11.398;2023-01-01T11:14:22;98215.66;;;7.37;100.00
70411;BME280;57832;46.038;11.398;2023-01-01T11:16:50;98211.19;;;8.01;100.00
70411;BME280;57832;46.038;11.398;2023-01-01T11:21:49;98200.94;;;7.29;100.00
70411;BME280;57832;46.038;11.398;2023-01-01T11:24:24;98195.31;;;8.51;100.00
70411;BME280;57832;46.038;11.398;2023-01-01T11:26:52;98171.94;;;11.62;100.00
70411;BME280;57832;46.038;11.398;2023-01-01T11:29:27;98163.59;;;14.92;100.00
70411;BME280;57832;46.038;11.398;2023-01-01T11:31:53;98159.63;;;13.38;100.00
70411;BME280;57832;46.038;11.398;2023-01-01T11:34:37;98152.41;;;9.66;100.00
70411;BME280;57832;46.038;11.398;2023-01-01T11:37:24;98159.44;;;8.31;100.00
70411;BME280;57832;46.038;11.398;2023-01-01T11:39:53;98160.75;;;8.76;100.00
70411;BME280;57832;46.038;11.398;2023-01-01T11:42:25;98155.88;;;8.46;100.00
70411;BME280;57832;46.038;11.398;2023-01-01T11:44:53;98149.69;;;9.14;100.00
70411;BME280;57832;46.038;11.398;2023-01-01T11:49:54;98132.16;;;11.21;100.00
70411;BME280;57832;46.038;11.398;2023-01-01T11:52:39;98124.16;;;9.75;100.00
70411;BME280;57832;46.038;11.398;2023-01-01T11:55:28;98126.75;;;9.09;100.00
70411;BME280;57832;46.038;11.398;2023-01-01T12:00:40;98112.94;;;8.07;100.00
70411;BME280;57832;46.038;11.398;2023-01-01T12:03:22;98100.75;;;9.21;100.00
70411;BME280;57832;46.038;11.398;2023-01-01T12:05:50;98100.28;;;9.44;100.00
70411;BME280;57832;46.038;11.398;2023-01-01T12:08:36;98103.81;;;8.58;100.00
70411;BME280;57832;46.038;11.398;2023-01-01T12:11:13;98099.38;;;8.58;100.00
70411;BME280;57832;46.038;11.398;2023-01-01T12:13:47;98090.97;;;9.55;100.00
70411;BME280;57832;46.038;11.398;2023-01-01T12:21:47;98070.91;;;10.19;100.00
70411;BME280;57832;46.038;11.398;2023-01-01T12:24:13;98074.22;;;9.69;100.00
70411;BME280;57832;46.038;11.398;2023-01-01T12:27:14;98072.22;;;10.67;100.00
70411;BME280;57832;46.038;11.398;2023-01-01T12:30:03;98073.78;;;11.56;100.00
70411;BME280;57832;46.038;11.398;2023-01-01T12:32:51;98068.38;;;12.42;100.00
70411;BME280;57832;46.038;11.398;2023-01-01T12:44:05;98054.97;;;14.88;100.00
70411;BME280;57832;46.038;11.398;2023-01-01T12:46:46;98055.94;;;12.07;100.00
70411;BME280;57832;46.038;11.398;2023-01-01T12:49:33;98051.63;;;11.82;100.00
70411;BME280;57832;46.038;11.398;2023-01-01T12:59:56;98038.81;;;11.56;100.00
70411;BME280;57832;46.038;11.398;2023-01-01T13:02:27;98029.84;;;11.26;100.00
70411;BME280;57832;46.038;11.398;2023-01-01T13:05:00;98030.88;;;11.44;100.00
70411;BME280;57832;46.038;11.398;2023-01-01T13:07:35;98037.38;;;11.04;100.00
70411;BME280;57832;46.038;11.398;2023-01-01T13:12:39;98033.50;;;10.37;100.00
70411;BME280;57832;46.038;11.398;2023-01-01T13:18:16;98031.78;;;10.18;100.00
70411;BME280;57832;46.038;11.398;2023-01-01T13:20:54;98034.16;;;10.01;100.00
70411;BME280;57832;46.038;11.398;2023-01-01T13:34:39;98034.75;;;8.92;100.00
70411;BME280;57832;46.038;11.398;2023-01-01T13:40:03;98045.19;;;8.05;100.00
70411;BME280;57832;46.038;11.398;2023-01-01T13:45:42;98058.44;;;8.10;100.00
70411;BME280;57832;46.038;11.398;2023-01-01T13:48:31;98059.59;;;7.81;100.00
70411;BME280;57832;46.038;11.398;2023-01-01T14:02:39;98084.31;;;7.36;100.00
70411;BME280;57832;46.038;11.398;2023-01-01T14:07:57;98081.09;;;6.99;100.00
70411;BME280;57832;46.038;11.398;2023-01-01T14:12:54;98093.44;;;6.84;100.00
70411;BME280;57832;46.038;11.398;2023-01-01T14:17:51;98091.53;;;6.71;100.00
70411;BME280;57832;46.038;11.398;2023-01-01T14:20:20;98093.44;;;6.84;100.00
70411;BME280;57832;46.038;11.398;2023-01-01T14:22:47;98091.66;;;6.91;100.00
70411;BME280;57832;46.038;11.398;2023-01-01T14:25:30;98103.03;;;7.05;100.00
70411;BME280;57832;46.038;11.398;2023-01-01T14:27:57;98104.38;;;7.29;100.00
70411;BME280;57832;46.038;11.398;2023-01-01T14:30:23;98114.72;;;7.16;100.00
70411;BME280;57832;46.038;11.398;2023-01-01T14:33:00;98114.53;;;7.17;100.00
70411;BME280;57832;46.038;11.398;2023-01-01T14:35:27;98122.69;;;7.08;100.00
70411;BME280;57832;46.038;11.398;2023-01-01T14:37:53;98114.94;;;6.93;100.00
70411;BME280;57832;46.038;11.398;2023-01-01T14:42:55;98119.63;;;6.76;100.00
70411;BME280;57832;46.038;11.398;2023-01-01T14:45:22;98124.44;;;6.50;100.00
70411;BME280;57832;46.038;11.398;2023-01-01T14:47:50;98124.88;;;6.54;100.00
70411;BME280;57832;46.038;11.398;2023-01-01T14:50:23;98120.34;;;6.41;100.00
70411;BME280;57832;46.038;11.398;2023-01-01T14:52:53;98117.75;;;6.41;100.00
70411;BME280;57832;46.038;11.398;2023-01-01T14:55:20;98126.97;;;6.22;100.00
70411;BME280;57832;46.038;11.398;2023-01-01T14:57:51;98122.44;;;6.31;100.00
70411;BME280;57832;46.038;11.398;2023-01-01T15:00:23;98124.94;;;6.39;100.00
70411;BME280;57832;46.038;11.398;2023-01-01T15:02:49;98134.38;;;6.03;100.00
70411;BME280;57832;46.038;11.398;2023-01-01T15:05:28;98130.19;;;6.02;100.00
70411;BME280;57832;46.038;11.398;2023-01-01T15:07:59;98133.38;;;6.05;100.00
70411;BME280;57832;46.038;11.398;2023-01-01T15:10:29;98126.69;;;5.65;100.00